Webcam 1 more information Webcam 1


Webcam 2 more information Webcam 2


altri nostri siti meteo:

Pomeziameteo 1Sito sul meteo

Pomeziameteo DashboardSito sul meteo

Caput FrigorisSito sul meteo

BarcellonameteoSito sul meteo

MeteoipassiSito sul meteo

ViterbometeoSito sul meteo

MeteotortoretoSito sul meteo

Stazione LineameteoSito sul meteo



Nessuna attenzione particolare richiesta.    Non ci sono allerte meteo

Notice: Undefined offset: 6 in /web/htdocs/www.castelnuovovomanometeo.it/home/weather28/metar/metarDisplay.php on line 76

Notice: Undefined offset: 5 in /web/htdocs/www.castelnuovovomanometeo.it/home/weather28/metar/metarDisplay.php on line 76

Report METAR

   
LIBP - Pescara
Dati ricevuti: 28-10-2020 01:20
Poche nuvole  
Poche nuvole  
   Vento: W 5.6 km/h
Vento: W 5.6 km/h
Temperatura: 10°C
Temperatura Vento: 9°C
P.to Rugiada: 9°C
Umidita: 94%
Barometro: 1015 hPa
Nuvole: Poche nuvole
Visibilita: oltre 10 km
dettagli cloud: Poche nuvole 14000 ft
LIBP 280020Z AUTO 25003KT 9999 FEW140/// 10/09 Q1015
LIRZ - Perugia
Dati ricevuti: 28-10-2020 01:20
Sereno  
Sereno  
   Vento: NE 5.6 km/h
Vento: NE 5.6 km/h
Temperatura: 8°C
Temperatura Vento: 7°C
P.to Rugiada: 8°C
Umidita: 100%
Barometro: 1016 hPa
Nuvole: Sereno
Visibilita: oltre 10 km
dettagli cloud: Sereno
LIRZ 280020Z AUTO 03003KT 9999 NCD 08/08 Q1016
LIQN - Rieti
Dati ricevuti: 27-10-2020 16:50
DATI Obsoleti
Sereno  
Sereno  
   Vento: calma
Vento: calma
Temperatura: 14°C
P.to Rugiada: 8°C
Umidita: 67%
Barometro: 1010 hPa
Visibilita: oltre 10 km
dettagli cloud: Sereno
LIQN 271550Z 00000KT CAVOK 14/08 Q1010
LIPY - Falconara
Dati ricevuti: 28-10-2020 01:20
Poche nuvole  
Poche nuvole  
   Vento: S 5.6 km/h
Vento: S 5.6 km/h
Temperatura: 11°C
P.to Rugiada: 11°C
Umidita: 100%
Barometro: 1015 hPa
Nuvole: Poche nuvole
Visibilita: oltre 10 km
dettagli cloud: Poche nuvole 7000 ft
LIPY 280020Z AUTO 20003KT 9999 FEW070/// 11/11 Q1015
  

Script sviluppato da  Saratoga-weather.org Adattato per il modello da  Weerstation Leuven

Potete trovare le nostre info meteo anche a:

Weather Underground

AWEKAS

Citizen Weather Observer Program (CWOP)

HAMweather, WeatherForYou, PWS Weather

Strumentazione usata:

Stazione meteo
Oregon 928

Programma gestore dati meteo
WVIEW

Server per i dati meteo
Pc-WDS5

Oregon 928

WVIEW

Pc-WDS5